Time;durP1;ratioP1;P1;durP2;ratioP2;P2;SDS_P1;SDS_P2;PMS_P1;PMS_P2;Temp;Humidity;BMP_temperature;BMP_pressure;BME280_temperature;BME280_humidity;BME280_pressure;Samples;Min_cycle;Max_cycle;Signal;HPM_P1;HPM_P2
2023/09/11 00:00:53;;;;;;;0.08;0.08;;;;;;;18.94;100.00;100336.06;4979245;28;20128;-47
2023/09/11 00:03:20;;;;;;;0.10;0.10;;;;;;;18.91;100.00;100336.06;4991281;28;20054;-49
2023/09/11 00:05:48;;;;;;;0.05;0.05;;;;;;;18.88;100.00;100343.31;4971435;28;20046;-46
2023/09/11 00:08:30;;;;;;;0.10;0.10;;;;;;;18.84;100.00;100337.72;4990924;28;20050;-45
2023/09/11 00:10:59;;;;;;;0.00;0.00;;;;;;;18.82;100.00;100333.75;4974299;28;20141;-46
2023/09/11 00:13:28;;;;;;;0.00;0.00;;;;;;;18.78;100.00;100333.75;4974299;28;20369;-45
2023/09/11 00:15:55;;;;;;;0.00;0.00;;;;;;;18.76;100.00;100336.19;4989888;28;20042;-47
2023/09/11 00:18:23;;;;;;;0.00;0.00;;;;;;;18.72;100.00;100332.59;4991868;28;20125;-45
2023/09/11 00:20:51;;;;;;;0.00;0.00;;;;;;;18.71;100.00;100339.41;4995649;28;20495;-46
2023/09/11 00:23:18;;;;;;;0.00;0.00;;;;;;;18.70;100.00;100326.59;4995219;28;20046;-46
2023/09/11 00:25:45;;;;;;;0.00;0.00;;;;;;;18.69;100.00;100329.81;4995117;28;20042;-46
2023/09/11 00:28:12;;;;;;;17.92;9.45;;;;;;;18.69;100.00;100327.78;4995152;28;20511;-45
2023/09/11 00:30:39;;;;;;;17.35;9.25;;;;;;;18.70;100.00;100329.41;4994908;28;20046;-45
2023/09/11 00:33:06;;;;;;;21.05;10.75;;;;;;;18.70;100.00;100326.59;4994157;28;20047;-45
2023/09/11 00:35:33;;;;;;;18.48;10.35;;;;;;;18.71;100.00;100333.81;4987767;28;20051;-46
2023/09/11 00:38:01;;;;;;;18.90;10.15;;;;;;;18.72;100.00;100341.00;4993597;28;20035;-44
2023/09/11 00:40:28;;;;;;;19.27;10.43;;;;;;;18.71;100.00;100327.41;4994461;28;20050;-45
2023/09/11 00:42:55;;;;;;;15.90;10.43;;;;;;;18.69;100.00;100325.00;4995786;28;20050;-45
2023/09/11 00:45:26;;;;;;;22.23;11.23;;;;;;;18.69;100.00;100330.59;4995264;28;20047;-45
2023/09/11 00:47:54;;;;;;;15.98;10.35;;;;;;;18.68;100.00;100323.41;4994886;28;20177;-44
2023/09/11 00:50:22;;;;;;;16.15;8.68;;;;;;;18.68;100.00;100322.63;4993265;28;20058;-46
2023/09/11 00:52:50;;;;;;;23.00;9.05;;;;;;;18.66;100.00;100325.84;4995040;28;20042;-47
2023/09/11 00:55:19;;;;;;;17.42;7.97;;;;;;;18.63;100.00;100332.25;4988643;28;20045;-47
2023/09/11 00:57:46;;;;;;;13.93;6.90;;;;;;;18.61;100.00;100334.66;4994734;28;20072;-46
2023/09/11 01:00:13;;;;;;;11.25;7.15;;;;;;;18.58;100.00;100324.28;5007496;28;20488;-45
2023/09/11 01:02:41;;;;;;;10.90;6.22;;;;;;;18.56;100.00;100335.09;4969335;28;20149;-45
2023/09/11 01:05:11;;;;;;;15.20;6.05;;;;;;;18.54;100.00;100336.69;4994669;28;20053;-46
2023/09/11 01:07:38;;;;;;;12.25;5.88;;;;;;;18.50;100.00;100333.94;4993806;28;20060;-45
2023/09/11 01:10:06;;;;;;;17.33;7.35;;;;;;;18.49;100.00;100335.13;4990080;28;20108;-45
2023/09/11 01:12:38;;;;;;;8.40;5.75;;;;;;;18.46;100.00;100326.69;4993872;28;20092;-45
2023/09/11 01:15:06;;;;;;;9.82;6.13;;;;;;;18.44;100.00;100318.72;4990902;28;20408;-45
2023/09/11 01:17:39;;;;;;;7.95;5.07;;;;;;;18.41;100.00;100325.13;4994959;28;20141;-45
2023/09/11 01:20:26;;;;;;;13.40;5.45;;;;;;;18.38;100.00;100337.16;4994246;28;20412;-45
2023/09/11 01:23:00;;;;;;;14.13;5.05;;;;;;;18.37;100.00;100335.56;4989071;28;20101;-45
2023/09/11 01:25:51;;;;;;;12.38;5.60;;;;;;;18.38;100.00;100336.34;4994110;28;20396;-45
2023/09/11 01:28:36;;;;;;;9.95;5.03;;;;;;;18.36;100.00;100333.97;4992889;28;20131;-44
2023/09/11 01:31:05;;;;;;;14.68;4.93;;;;;;;18.35;100.00;100332.38;4993491;28;20117;-45
2023/09/11 01:33:32;;;;;;;7.30;3.85;;;;;;;18.33;100.00;100331.97;4994835;28;20058;-47
2023/09/11 01:35:59;;;;;;;7.53;4.68;;;;;;;18.30;100.00;100329.19;4992895;28;20074;-45
2023/09/11 01:38:27;;;;;;;7.40;4.50;;;;;;;18.29;100.00;100322.00;4993076;28;20068;-45
2023/09/11 01:40:59;;;;;;;5.72;4.07;;;;;;;18.30;100.00;100341.19;4993661;28;20497;-44
2023/09/11 01:43:31;;;;;;;8.85;3.85;;;;;;;18.33;100.00;100331.97;4994264;28;20093;-47
2023/09/11 01:46:02;;;;;;;6.95;3.42;;;;;;;18.35;100.00;100326.75;4993875;28;20066;-45
2023/09/11 01:48:31;;;;;;;8.15;3.90;;;;;;;18.38;100.00;100330.75;4991128;28;20444;-45
2023/09/11 01:50:59;;;;;;;11.98;4.70;;;;;;;18.38;100.00;100336.34;4993232;28;20061;-45
2023/09/11 01:53:26;;;;;;;8.02;3.97;;;;;;;18.34;100.00;100336.38;4993978;28;20381;-45
2023/09/11 01:55:55;;;;;;;6.90;3.53;;;;;;;18.30;100.00;100340.38;4993523;28;20051;-46
2023/09/11 01:58:22;;;;;;;7.38;3.55;;;;;;;18.27;100.00;100346.84;4992440;28;20154;-46
2023/09/11 02:00:54;;;;;;;4.60;3.15;;;;;;;18.23;100.00;100346.84;4992886;28;20503;-45
2023/09/11 02:03:21;;;;;;;5.20;2.40;;;;;;;18.16;100.00;100342.06;4993420;28;20133;-44
2023/09/11 02:05:48;;;;;;;5.60;2.30;;;;;;;18.12;100.00;100351.69;4989930;28;20504;-45
2023/09/11 02:08:16;;;;;;;4.53;2.00;;;;;;;18.07;100.00;100346.50;4995153;28;20436;-45
2023/09/11 02:10:43;;;;;;;4.00;2.40;;;;;;;18.02;100.00;100342.13;4991635;28;20134;-44
2023/09/11 02:13:10;;;;;;;5.55;2.40;;;;;;;18.03;100.00;100345.72;4993433;28;20105;-44
2023/09/11 02:15:37;;;;;;;5.15;1.95;;;;;;;18.00;100.00;100344.50;4988948;28;20054;-45
2023/09/11 02:18:04;;;;;;;5.32;2.17;;;;;;;17.99;100.00;100347.72;4975247;28;20519;-44
2023/09/11 02:20:31;;;;;;;3.85;1.88;;;;;;;17.99;100.00;100342.13;4993162;28;20042;-44
2023/09/11 02:23:01;;;;;;;4.68;2.42;;;;;;;17.99;100.00;100344.91;4993019;28;20058;-46
2023/09/11 02:25:28;;;;;;;3.40;2.05;;;;;;;18.00;100.00;100344.50;4992547;28;20057;-44
2023/09/11 02:27:56;;;;;;;6.28;2.42;;;;;;;17.98;100.00;100346.91;4992908;28;20058;-45
2023/09/11 02:30:23;;;;;;;3.80;1.90;;;;;;;17.97;100.00;100342.53;4990592;28;20104;-45
2023/09/11 02:32:52;;;;;;;4.72;2.22;;;;;;;17.96;100.00;100343.72;4975276;28;20081;-44
2023/09/11 02:35:19;;;;;;;6.28;2.72;;;;;;;17.94;100.00;100339.75;4993565;28;20042;-45
2023/09/11 02:37:46;;;;;;;3.95;2.58;;;;;;;17.94;100.00;100334.13;4991579;28;20054;-45
2023/09/11 02:40:13;;;;;;;3.90;2.15;;;;;;;17.90;100.00;100333.34;4991537;28;20055;-44
2023/09/11 02:42:40;;;;;;;2.53;1.90;;;;;;;17.88;100.00;100328.16;4992136;28;20511;-45
2023/09/11 02:45:08;;;;;;;3.20;1.58;;;;;;;17.87;100.00;100322.97;4991655;28;20148;-44
2023/09/11 02:47:34;;;;;;;4.22;1.90;;;;;;;17.87;100.00;100322.97;4992809;28;20044;-44
2023/09/11 02:50:03;;;;;;;4.18;2.20;;;;;;;17.85;100.00;100328.16;4991521;28;20389;-45
2023/09/11 02:52:30;;;;;;;6.75;2.17;;;;;;;17.85;100.00;100319.75;4973892;28;20054;-45
2023/09/11 02:54:57;;;;;;;4.07;2.40;;;;;;;17.83;100.00;100313.75;4992903;28;20054;-46
2023/09/11 02:57:27;;;;;;;6.90;2.42;;;;;;;17.80;100.00;100320.16;4992538;28;20411;-44
2023/09/11 02:59:55;;;;;;;7.80;2.25;;;;;;;17.80;100.00;100322.97;4998602;28;20129;-44
2023/09/11 03:02:22;;;;;;;3.95;2.22;;;;;;;17.80;100.00;100320.97;5027755;23;20533;-45
2023/09/11 03:04:57;;;;;;;3.83;2.33;;;;;;;17.79;100.00;100332.59;5114538;27;20392;-46
2023/09/11 03:07:24;;;;;;;3.83;1.95;;;;;;;17.79;100.00;100321.38;5075642;28;20485;-45
2023/09/11 03:09:51;;;;;;;3.92;2.65;;;;;;;17.80;100.00;100322.97;5086130;28;20111;-46
2023/09/11 03:12:18;;;;;;;2.72;2.10;;;;;;;17.77;100.00;100326.56;5088762;28;20055;-46
2023/09/11 03:14:45;;;;;;;3.28;2.50;;;;;;;17.77;100.00;100327.38;5087392;28;20044;-46
2023/09/11 03:17:14;;;;;;;5.75;2.50;;;;;;;17.77;100.00;100323.78;5088457;28;20148;-45
2023/09/11 03:19:44;;;;;;;2.53;2.22;;;;;;;17.75;100.00;100326.19;5088134;28;20048;-46
2023/09/11 03:22:11;;;;;;;4.70;1.90;;;;;;;17.71;100.00;100322.59;5088366;28;20047;-47
2023/09/11 03:24:39;;;;;;;4.28;1.77;;;;;;;17.66;100.00;100321.00;5088080;28;20045;-45
2023/09/11 03:27:08;;;;;;;3.58;2.00;;;;;;;17.64;100.00;100323.41;5088238;28;20491;-45
2023/09/11 03:29:35;;;;;;;1.60;1.27;;;;;;;17.65;100.00;100316.63;5088127;28;20063;-45
2023/09/11 03:32:02;;;;;;;2.58;1.80;;;;;;;17.64;100.00;100318.63;5087016;28;20056;-46
2023/09/11 03:34:30;;;;;;;4.43;1.88;;;;;;;17.67;100.00;100316.19;5088361;28;20044;-47
2023/09/11 03:36:57;;;;;;;4.45;1.98;;;;;;;17.64;100.00;100318.63;5087652;28;20413;-45
2023/09/11 03:39:24;;;;;;;3.20;1.48;;;;;;;17.63;100.00;100311.41;5082019;28;20052;-45
2023/09/11 03:41:51;;;;;;;3.33;1.63;;;;;;;17.64;100.00;100315.81;5088161;28;20072;-46
2023/09/11 03:44:18;;;;;;;1.45;1.13;;;;;;;17.67;100.00;100316.19;5087623;28;20047;-45
2023/09/11 03:46:45;;;;;;;2.00;1.17;;;;;;;17.68;100.00;100315.00;5085413;28;20072;-46
2023/09/11 03:49:12;;;;;;;3.22;1.50;;;;;;;17.67;100.00;100310.59;5085529;28;20453;-47
2023/09/11 03:51:41;;;;;;;2.90;1.48;;;;;;;17.68;100.00;100320.59;5084884;28;20044;-47
2023/09/11 03:54:11;;;;;;;1.83;1.20;;;;;;;17.64;100.00;100310.22;5086434;28;20072;-46
2023/09/11 03:56:38;;;;;;;1.42;1.33;;;;;;;17.61;100.00;100319.41;5087860;28;20123;-46
2023/09/11 03:59:05;;;;;;;3.08;1.23;;;;;;;17.62;100.00;100323.03;5086378;28;20055;-49
2023/09/11 04:01:31;;;;;;;7.25;1.90;;;;;;;17.61;100.00;100322.22;5087857;28;20086;-46
2023/09/11 04:03:59;;;;;;;3.38;1.40;;;;;;;17.57;100.00;100324.22;5086747;28;20479;-46
2023/09/11 04:06:26;;;;;;;1.95;1.48;;;;;;;17.55;100.00;100318.22;5085934;28;20048;-46
2023/09/11 04:08:53;;;;;;;2.17;1.35;;;;;;;17.53;100.00;100323.44;5087263;28;20058;-46
2023/09/11 04:11:22;;;;;;;1.88;1.77;;;;;;;17.49;100.00;100321.81;5087438;28;20150;-46
2023/09/11 04:13:51;;;;;;;5.10;1.13;;;;;;;17.44;100.00;100333.41;5069200;28;20056;-46
2023/09/11 04:16:19;;;;;;;1.80;0.90;;;;;;;17.41;100.00;100323.81;5073949;28;20102;-46
2023/09/11 04:18:46;;;;;;;1.77;0.70;;;;;;;17.39;100.00;100326.22;5060810;28;20052;-49
2023/09/11 04:21:13;;;;;;;1.73;1.63;;;;;;;17.35;100.00;100327.41;5054795;28;20070;-46
2023/09/11 04:23:40;;;;;;;2.45;2.25;;;;;;;17.30;100.00;100325.81;5071266;28;20045;-45
2023/09/11 04:26:08;;;;;;;3.78;3.45;;;;;;;17.27;100.00;100328.63;5073680;28;20049;-46
2023/09/11 04:28:36;;;;;;;4.68;4.20;;;;;;;17.25;100.00;100326.22;5073717;28;20472;-47
2023/09/11 04:31:03;;;;;;;6.07;5.47;;;;;;;17.24;100.00;100327.41;5073199;28;20079;-46
2023/09/11 04:33:30;;;;;;;9.15;6.30;;;;;;;17.23;100.00;100317.44;5054240;28;20131;-45
2023/09/11 04:35:59;;;;;;;10.25;7.55;;;;;;;17.22;100.00;100321.44;5073582;28;20056;-47
2023/09/11 04:38:26;;;;;;;8.52;5.80;;;;;;;17.23;100.00;100322.25;5054169;28;20062;-48
2023/09/11 04:40:57;;;;;;;12.50;6.95;;;;;;;17.22;100.00;100320.63;5065739;28;20052;-45
2023/09/11 04:43:25;;;;;;;6.38;5.32;;;;;;;17.22;100.00;100326.22;5073029;28;20049;-46
2023/09/11 04:45:52;;;;;;;4.63;3.85;;;;;;;17.20;100.00;100325.84;5055333;28;20045;-46
2023/09/11 04:48:19;;;;;;;4.30;3.83;;;;;;;17.20;100.00;100332.22;5073291;28;20646;-46
2023/09/11 04:50:46;;;;;;;4.47;3.72;;;;;;;17.20;100.00;100337.03;5072034;28;20102;-48
2023/09/11 04:53:13;;;;;;;5.13;3.75;;;;;;;17.21;100.00;100328.22;5071398;28;20036;-46
2023/09/11 04:55:40;;;;;;;6.35;4.05;;;;;;;17.23;100.00;100333.44;5055144;28;20048;-47
2023/09/11 04:58:08;;;;;;;4.70;3.47;;;;;;;17.22;100.00;100327.03;5072431;28;20737;-46
2023/09/11 05:00:35;;;;;;;4.25;3.58;;;;;;;17.21;100.00;100336.59;5073124;28;20044;-46
2023/09/11 05:03:02;;;;;;;4.78;3.10;;;;;;;17.19;100.00;100327.81;5071709;28;20501;-46
2023/09/11 05:05:30;;;;;;;5.60;2.70;;;;;;;17.18;100.00;100328.22;5072709;28;20040;-46
2023/09/11 05:07:58;;;;;;;3.00;2.70;;;;;;;17.17;100.00;100324.63;5073479;28;20055;-46
2023/09/11 05:10:25;;;;;;;2.50;2.30;;;;;;;17.16;100.00;100328.63;5072866;28;20052;-47
2023/09/11 05:12:52;;;;;;;3.58;2.30;;;;;;;17.15;100.00;100321.44;5071448;28;20117;-46
2023/09/11 05:15:20;;;;;;;4.18;1.95;;;;;;;17.18;100.00;100331.84;5071813;28;20045;-46
2023/09/11 05:17:47;;;;;;;3.42;1.95;;;;;;;17.18;100.00;100334.63;5055022;28;20102;-46
2023/09/11 05:20:14;;;;;;;4.43;2.70;;;;;;;17.18;100.00;100339.44;5054396;28;20045;-45
2023/09/11 05:22:42;;;;;;;1.92;1.67;;;;;;;17.16;100.00;100339.81;5071269;28;20094;-49
2023/09/11 05:25:12;;;;;;;2.20;1.58;;;;;;;17.18;100.00;100347.81;5058917;28;20048;-46
2023/09/11 05:27:40;;;;;;;2.33;2.10;;;;;;;17.16;100.00;100345.41;5071134;28;20134;-47
2023/09/11 05:30:07;;;;;;;4.40;2.30;;;;;;;17.19;100.00;100352.19;5071487;28;20052;-45
2023/09/11 05:32:34;;;;;;;3.67;2.00;;;;;;;17.19;100.00;100347.41;5051337;28;20041;-46
2023/09/11 05:35:04;;;;;;;3.55;1.83;;;;;;;17.20;100.00;100345.41;5072369;28;20144;-46
2023/09/11 05:37:32;;;;;;;2.15;2.00;;;;;;;17.20;100.00;100354.63;5068750;28;20128;-46
2023/09/11 05:40:00;;;;;;;5.20;2.25;;;;;;;17.22;100.00;100351.41;5066493;28;20804;-45
2023/09/11 05:42:29;;;;;;;3.35;1.98;;;;;;;17.22;100.00;100355.00;5072292;28;20079;-46
2023/09/11 05:44:59;;;;;;;4.43;1.60;;;;;;;17.22;100.00;100363.41;5072332;28;20057;-48
2023/09/11 05:47:27;;;;;;;4.60;2.25;;;;;;;17.24;100.00;100358.19;5071790;28;20060;-45
2023/09/11 05:49:59;;;;;;;2.97;2.22;;;;;;;17.23;100.00;100359.41;5061211;28;20500;-45
2023/09/11 05:52:27;;;;;;;3.08;1.92;;;;;;;17.22;100.00;100366.19;5070809;28;20054;-46
2023/09/11 05:54:55;;;;;;;2.17;1.98;;;;;;;17.23;100.00;100369.81;5053029;28;20501;-46
2023/09/11 05:57:22;;;;;;;3.53;2.30;;;;;;;17.23;100.00;100365.00;5071490;28;20051;-46
2023/09/11 05:59:49;;;;;;;4.05;2.20;;;;;;;17.23;100.00;100379.00;5071892;28;20393;-45
2023/09/11 06:02:16;;;;;;;6.93;1.92;;;;;;;17.16;100.00;100383.75;5071742;28;20052;-46
2023/09/11 06:04:43;;;;;;;3.40;1.42;;;;;;;17.14;100.00;100381.38;5070712;28;20045;-45
2023/09/11 06:07:11;;;;;;;2.72;1.58;;;;;;;17.06;100.00;100379.75;5068838;28;20044;-46
2023/09/11 06:09:39;;;;;;;2.90;1.20;;;;;;;17.01;100.00;100382.97;5070633;28;20044;-46
2023/09/11 06:12:07;;;;;;;2.95;1.85;;;;;;;17.03;100.00;100380.56;5071284;28;20044;-46
2023/09/11 06:14:37;;;;;;;4.30;1.58;;;;;;;17.00;100.00;100384.94;5053569;28;20036;-46
2023/09/11 06:17:05;;;;;;;4.57;1.10;;;;;;;16.98;100.00;100389.34;5071299;28;20052;-46
2023/09/11 06:19:32;;;;;;;3.75;1.33;;;;;;;16.96;100.00;100392.56;5070988;28;20070;-46
2023/09/11 06:22:00;;;;;;;3.92;1.38;;;;;;;16.92;100.00;100390.91;5069747;28;20045;-47
2023/09/11 06:24:29;;;;;;;5.57;1.30;;;;;;;16.91;100.00;100395.75;5071231;28;20052;-46
2023/09/11 06:27:06;;;;;;;4.97;1.58;;;;;;;16.96;100.00;100400.13;5071666;28;20050;-46
2023/09/11 06:29:33;;;;;;;5.68;1.40;;;;;;;16.95;99.91;100401.31;5071089;28;20049;-46
2023/09/11 06:32:00;;;;;;;5.25;1.48;;;;;;;16.99;99.46;100402.13;5068259;28;20267;-45
2023/09/11 06:34:29;;;;;;;4.55;1.45;;;;;;;17.00;99.23;100400.94;5070963;28;20040;-46
2023/09/11 06:36:58;;;;;;;4.07;1.55;;;;;;;17.01;98.84;100405.34;5067810;28;20040;-45
2023/09/11 06:39:26;;;;;;;5.07;1.85;;;;;;;17.01;97.89;100406.13;5065821;28;20044;-46
2023/09/11 06:41:52;;;;;;;6.60;1.73;;;;;;;17.03;98.09;100409.34;5071088;28;20124;-46
2023/09/11 06:44:24;;;;;;;6.05;1.48;;;;;;;17.03;97.38;100408.53;5070850;28;20037;-45
2023/09/11 06:46:51;;;;;;;2.67;1.23;;;;;;;17.07;97.19;100414.13;5053533;28;20059;-46
2023/09/11 06:49:19;;;;;;;4.80;1.20;;;;;;;17.03;96.71;100408.53;5070537;28;20040;-46
2023/09/11 06:51:47;;;;;;;4.25;1.20;;;;;;;17.05;96.89;100425.72;5053486;28;20048;-47
2023/09/11 06:54:14;;;;;;;7.15;2.00;;;;;;;17.08;96.47;100433.31;5070676;28;20127;-46
2023/09/11 06:56:44;;;;;;;3.72;1.35;;;;;;;17.08;96.56;100427.72;5070261;28;20052;-45
2023/09/11 06:59:14;;;;;;;6.95;1.42;;;;;;;17.08;96.31;100424.91;5068404;28;20049;-45
2023/09/11 07:01:41;;;;;;;4.20;1.27;;;;;;;17.08;95.70;100426.94;5036459;28;20044;-45
2023/09/11 07:04:11;;;;;;;5.55;1.48;;;;;;;17.05;95.43;100423.72;5070787;28;20056;-48
2023/09/11 07:06:40;;;;;;;5.70;1.30;;;;;;;17.07;94.96;100414.94;5070346;28;20063;-45
2023/09/11 07:09:08;;;;;;;4.95;1.55;;;;;;;17.06;94.89;100430.13;5070979;28;20049;-46
2023/09/11 07:11:35;;;;;;;5.50;1.38;;;;;;;17.05;94.60;100428.50;5069408;28;20071;-47
2023/09/11 07:14:05;;;;;;;5.85;1.52;;;;;;;17.05;94.32;100434.09;5069816;28;20493;-47
2023/09/11 07:16:32;;;;;;;6.80;1.60;;;;;;;17.03;94.33;100422.50;5070654;28;20147;-45
2023/09/11 07:18:59;;;;;;;8.77;1.67;;;;;;;17.05;94.05;100436.91;5070965;28;20067;-45
2023/09/11 07:21:27;;;;;;;3.13;1.27;;;;;;;17.05;94.40;100436.91;5070739;28;20045;-47
2023/09/11 07:23:54;;;;;;;9.25;1.58;;;;;;;17.05;94.04;100434.91;5070672;28;20056;-47
2023/09/11 07:26:22;;;;;;;4.78;1.92;;;;;;;17.03;94.00;100436.50;5052566;28;20036;-45
2023/09/11 07:29:02;;;;;;;2.63;1.42;;;;;;;17.04;93.61;100438.91;5069136;28;20429;-46
2023/09/11 07:31:32;;;;;;;6.15;1.63;;;;;;;17.05;93.20;100446.09;5051531;28;20072;-45
2023/09/11 07:33:59;;;;;;;2.42;1.45;;;;;;;17.05;93.02;100445.28;5062644;28;20132;-45
2023/09/11 07:36:28;;;;;;;9.32;1.95;;;;;;;17.06;92.67;100441.31;5052901;28;20139;-45
2023/09/11 07:38:55;;;;;;;3.97;1.38;;;;;;;17.02;92.57;100449.69;5065612;28;20482;-45
2023/09/11 07:41:23;;;;;;;3.53;1.83;;;;;;;17.06;92.50;100446.91;5070129;28;20045;-45
2023/09/11 07:43:50;;;;;;;4.18;1.38;;;;;;;17.04;92.44;100446.50;5069637;28;20493;-46
2023/09/11 07:46:20;;;;;;;5.93;1.88;;;;;;;17.04;92.18;100449.28;5070748;28;20083;-45
2023/09/11 07:48:48;;;;;;;6.60;1.60;;;;;;;17.01;92.12;100445.28;5068595;28;20063;-45
2023/09/11 07:51:15;;;;;;;6.38;1.67;;;;;;;17.01;92.03;100450.09;5073176;28;20079;-44
2023/09/11 07:53:43;;;;;;;4.95;1.33;;;;;;;17.04;92.26;100450.09;5074218;28;20136;-46
2023/09/11 07:56:10;;;;;;;10.73;2.47;;;;;;;17.05;92.30;100450.88;5073102;28;20040;-49
2023/09/11 07:58:39;;;;;;;8.38;2.17;;;;;;;17.05;92.42;100456.47;5074406;28;20044;-41
2023/09/11 08:01:07;;;;;;;7.05;2.00;;;;;;;17.06;92.25;100455.28;5069358;28;20080;-47
2023/09/11 08:03:35;;;;;;;8.23;1.58;;;;;;;17.05;92.32;100454.47;5072555;28;20048;-46
2023/09/11 08:06:05;;;;;;;5.15;1.50;;;;;;;17.07;92.19;100458.88;5073690;28;20379;-45
2023/09/11 08:08:32;;;;;;;9.55;2.30;;;;;;;17.09;91.95;100456.50;5074554;28;20040;-45
2023/09/11 08:11:16;;;;;;;5.43;1.38;;;;;;;17.13;92.02;100455.28;5073816;28;20095;-45
2023/09/11 08:13:46;;;;;;;5.78;1.60;;;;;;;17.18;91.90;100449.34;5052929;28;20142;-46
2023/09/11 08:16:14;;;;;;;4.63;1.65;;;;;;;17.23;91.41;100451.75;5071471;28;20040;-45
2023/09/11 08:18:43;;;;;;;9.75;2.05;;;;;;;17.27;91.52;100443.34;5048130;28;20600;-47
2023/09/11 08:21:12;;;;;;;7.20;1.88;;;;;;;17.29;91.73;100444.53;5073011;28;20050;-46
2023/09/11 08:23:43;;;;;;;5.80;1.67;;;;;;;17.33;91.48;100450.94;5073246;28;20236;-45
2023/09/11 08:26:11;;;;;;;8.20;1.73;;;;;;;17.37;91.41;100450.94;5075559;28;20036;-49
2023/09/11 08:28:38;;;;;;;6.05;1.65;;;;;;;17.42;91.16;100453.38;5056986;28;20094;-45
2023/09/11 08:31:06;;;;;;;3.92;1.52;;;;;;;17.44;91.08;100462.97;5073529;28;20139;-49
2023/09/11 08:33:35;;;;;;;8.05;2.30;;;;;;;17.45;90.84;100452.53;5056013;28;20499;-45
2023/09/11 08:36:22;;;;;;;5.85;1.90;;;;;;;17.46;90.70;100466.16;5073503;28;20075;-45
2023/09/11 08:38:49;;;;;;;7.10;2.13;;;;;;;17.43;90.40;100464.16;5062514;28;20440;-45
2023/09/11 08:41:17;;;;;;;5.43;1.60;;;;;;;17.41;90.24;100457.34;5068903;28;20048;-45
2023/09/11 08:43:46;;;;;;;6.85;2.20;;;;;;;17.41;90.37;100465.75;5072260;28;20044;-45
2023/09/11 08:46:17;;;;;;;9.10;3.03;;;;;;;17.40;90.28;100467.75;5072347;28;20044;-45
2023/09/11 08:48:49;;;;;;;4.03;2.05;;;;;;;17.39;90.38;100466.16;5039725;28;20086;-45
2023/09/11 08:51:22;;;;;;;8.40;2.17;;;;;;;17.37;90.56;100462.13;5072101;28;20052;-45
2023/09/11 08:53:52;;;;;;;6.78;2.20;;;;;;;17.36;90.34;100464.16;5072965;28;20422;-45
2023/09/11 08:56:19;;;;;;;5.35;1.58;;;;;;;17.33;90.22;100462.16;5072184;28;20048;-45
2023/09/11 08:58:51;;;;;;;8.18;1.95;;;;;;;17.30;90.03;100462.13;5071271;28;20060;-45
2023/09/11 09:01:22;;;;;;;5.72;1.80;;;;;;;17.30;90.01;100462.13;5071897;28;20060;-47
2023/09/11 09:03:57;;;;;;;6.40;2.20;;;;;;;17.30;89.79;100465.72;5072819;28;20056;-45
2023/09/11 09:06:25;;;;;;;5.28;2.20;;;;;;;17.31;89.97;100475.75;5072286;28;20183;-45
2023/09/11 09:08:53;;;;;;;4.82;1.75;;;;;;;17.35;89.99;100458.94;5072522;28;20412;-45
2023/09/11 09:11:24;;;;;;;6.35;2.22;;;;;;;17.38;89.83;100458.94;5069277;28;20094;-51
2023/09/11 09:13:51;;;;;;;8.98;2.63;;;;;;;17.41;89.88;100469.34;5069998;28;20042;-46
2023/09/11 09:16:20;;;;;;;3.55;1.63;;;;;;;17.44;89.81;100471.34;5072342;28;20051;-44
2023/09/11 09:18:51;;;;;;;5.57;2.22;;;;;;;17.42;89.77;100470.94;5055220;28;20048;-48
2023/09/11 09:21:20;;;;;;;5.32;1.90;;;;;;;17.42;89.88;100470.94;5072408;28;20740;-45
2023/09/11 09:23:47;;;;;;;4.93;2.03;;;;;;;17.43;89.66;100466.16;5054606;28;20063;-45
2023/09/11 09:26:14;;;;;;;6.97;1.80;;;;;;;17.45;89.85;100480.53;5074994;28;20056;-46
2023/09/11 09:28:47;;;;;;;5.18;2.20;;;;;;;17.46;89.88;100468.94;5080841;28;20087;-45
2023/09/11 09:31:22;;;;;;;4.53;2.38;;;;;;;17.52;90.08;100464.56;5072260;28;20048;-45
2023/09/11 09:33:55;;;;;;;4.65;2.35;;;;;;;17.57;89.82;100469.81;5072315;28;20048;-46
2023/09/11 09:36:23;;;;;;;8.70;2.45;;;;;;;17.63;89.73;100473.78;5072242;28;20052;-45
2023/09/11 09:38:51;;;;;;;9.75;2.85;;;;;;;17.79;89.84;100481.00;5060909;28;20048;-45
2023/09/11 09:41:29;;;;;;;5.75;2.42;;;;;;;17.90;89.51;100485.38;5070045;28;20045;-45
2023/09/11 09:43:56;;;;;;;4.68;2.10;;;;;;;18.02;89.53;100472.97;5052821;28;20052;-46
2023/09/11 09:46:24;;;;;;;5.28;2.58;;;;;;;18.11;89.44;100479.75;5064880;28;20072;-48
2023/09/11 09:48:53;;;;;;;4.93;2.10;;;;;;;18.12;89.43;100477.75;5066432;28;20048;-46
2023/09/11 09:51:21;;;;;;;7.40;4.15;;;;;;;18.15;89.17;100479.75;5071637;28;20048;-45
2023/09/11 09:53:53;;;;;;;5.60;2.33;;;;;;;18.12;88.87;100478.56;5071794;28;20052;-44
2023/09/11 09:56:22;;;;;;;7.63;3.35;;;;;;;18.12;88.89;100480.56;5069819;28;20052;-45
2023/09/11 09:58:49;;;;;;;10.25;3.05;;;;;;;18.16;88.87;100484.19;5071292;28;20060;-45
2023/09/11 10:01:20;;;;;;;8.25;2.97;;;;;;;18.18;88.97;100485.38;5071801;28;20121;-46
2023/09/11 10:03:53;;;;;;;8.40;2.92;;;;;;;18.22;89.06;100482.53;5060109;28;20055;-44
2023/09/11 10:06:31;;;;;;;5.75;2.63;;;;;;;18.27;88.84;100481.34;5071640;28;20106;-47
2023/09/11 10:09:07;;;;;;;5.35;2.45;;;;;;;18.32;88.59;100484.50;5071556;28;20048;-47
2023/09/11 10:11:36;;;;;;;4.70;2.28;;;;;;;18.39;88.26;100478.09;5070174;28;20064;-45
2023/09/11 10:14:06;;;;;;;6.13;2.85;;;;;;;18.41;87.80;100473.69;5070899;28;20044;-45
2023/09/11 10:16:38;;;;;;;8.20;2.90;;;;;;;18.43;87.50;100482.50;5071027;28;20097;-44
2023/09/11 10:19:05;;;;;;;5.93;2.50;;;;;;;18.44;87.38;100488.91;5071609;28;20052;-45
2023/09/11 10:21:32;;;;;;;6.07;2.20;;;;;;;18.42;87.74;100480.91;5058235;28;20040;-48
2023/09/11 10:24:01;;;;;;;6.18;2.85;;;;;;;18.37;87.46;100480.53;5061909;28;20048;-45
2023/09/11 10:26:46;;;;;;;5.40;2.60;;;;;;;18.31;87.33;100482.94;5070429;28;20048;-44
2023/09/11 10:29:21;;;;;;;5.40;2.20;;;;;;;18.22;87.34;100476.94;5069944;28;20040;-46
2023/09/11 10:32:32;;;;;;;8.95;2.22;;;;;;;18.20;87.46;100479.34;5071069;28;20047;-44
2023/09/11 10:35:05;;;;;;;9.65;3.00;;;;;;;18.17;87.45;100477.34;5071316;28;20037;-44
2023/09/11 10:37:38;;;;;;;6.97;2.42;;;;;;;18.15;87.77;100479.75;5062942;28;20071;-45
2023/09/11 10:40:06;;;;;;;9.02;2.10;;;;;;;18.18;87.75;100481.75;5060139;28;20114;-45
2023/09/11 10:42:34;;;;;;;4.15;2.40;;;;;;;18.20;87.54;100476.53;5071142;28;20054;-44
2023/09/11 10:45:03;;;;;;;9.30;2.65;;;;;;;18.20;87.76;100484.94;5071000;28;20090;-45
2023/09/11 10:47:30;;;;;;;9.55;2.78;;;;;;;18.19;87.96;100489.75;5069129;28;20048;-45
2023/09/11 10:49:57;;;;;;;11.23;3.15;;;;;;;18.23;87.60;100486.94;5071359;28;20049;-45
2023/09/11 10:52:26;;;;;;;10.27;2.95;;;;;;;18.27;87.71;100484.16;5070754;28;20068;-44
2023/09/11 10:54:53;;;;;;;9.60;3.05;;;;;;;18.27;88.01;100481.34;5069111;28;20044;-45
2023/09/11 10:57:20;;;;;;;4.95;3.55;;;;;;;18.30;88.43;100486.13;5070903;28;20044;-45
2023/09/11 10:59:49;;;;;;;6.63;2.85;;;;;;;18.30;88.69;100472.91;5070644;28;20057;-45
2023/09/11 11:02:21;;;;;;;7.13;2.88;;;;;;;18.29;89.16;100474.13;5070916;28;20405;-44
2023/09/11 11:04:48;;;;;;;8.23;2.72;;;;;;;18.29;89.76;100470.53;5070857;28;20080;-44
2023/09/11 11:07:15;;;;;;;5.57;2.80;;;;;;;18.25;89.83;100468.53;5070666;28;20485;-45
2023/09/11 11:09:50;;;;;;;9.63;3.00;;;;;;;18.25;89.68;100473.34;5071031;28;20398;-44
2023/09/11 11:12:34;;;;;;;8.50;3.13;;;;;;;18.20;89.80;100482.16;5058466;28;20048;-45
2023/09/11 11:15:23;;;;;;;5.95;2.88;;;;;;;18.12;90.41;100480.56;5070826;28;20063;-43
2023/09/11 11:18:13;;;;;;;6.82;2.35;;;;;;;18.09;91.05;100487.78;5071339;28;20049;-45
2023/09/11 11:21:14;;;;;;;7.68;3.05;;;;;;;18.07;90.99;100483.78;5062241;28;20051;-44
2023/09/11 11:23:56;;;;;;;3.42;2.70;;;;;;;18.05;91.31;100481.38;5054235;28;20508;-44
2023/09/11 11:26:27;;;;;;;9.73;3.17;;;;;;;18.02;91.96;100486.97;5072731;28;20101;-45
2023/09/11 11:28:54;;;;;;;6.63;3.17;;;;;;;18.02;92.03;100489.78;5072721;28;20139;-47